Time;durP1;ratioP1;P1;durP2;ratioP2;P2;SDS_P1;SDS_P2;PMS_P1;PMS_P2;Temp;Humidity;BMP_temperature;BMP_pressure;BME280_temperature;BME280_humidity;BME280_pressure;Samples;Min_cycle;Max_cycle;Signal;HPM_P1;HPM_P2
2023/07/06 17:30:31;;;;;;;251.52;197.95;;;;;;;;;;5035731;28;20510;-58
2023/07/06 17:32:57;;;;;;;234.38;202.07;;;;;;;;;;5038843;28;20043;-58
2023/07/06 17:35:22;;;;;;;250.23;224.73;;;;;;;;;;5039400;28;20031;-56
2023/07/06 17:37:47;;;;;;;284.73;241.70;;;;;;;;;;5039181;28;20009;-58
2023/07/06 17:40:12;;;;;;;275.38;240.00;;;;;;;;;;5039934;28;20274;-59
2023/07/06 17:42:38;;;;;;;246.17;220.07;;;;;;;;;;5041195;28;20108;-58
2023/07/06 17:45:03;;;;;;;346.50;243.50;;;;;;;;;;5039625;28;20259;-56
2023/07/06 17:47:29;;;;;;;272.90;245.73;;;;;;;;;;5042979;28;20613;-56
2023/07/06 17:49:54;;;;;;;278.98;249.85;;;;;;;;;;5039548;28;20247;-55
2023/07/06 17:52:20;;;;;;;300.47;262.67;;;;;;;;;;5038441;28;20227;-53
2023/07/06 17:54:45;;;;;;;321.50;264.80;;;;;;;;;;5039178;28;20280;-58
2023/07/06 17:57:10;;;;;;;330.40;250.90;;;;;;;;;;5036983;28;20363;-56
2023/07/06 17:59:36;;;;;;;308.58;259.98;;;;;;;;;;5038157;28;20100;-55
2023/07/06 18:02:01;;;;;;;345.30;243.82;;;;;;;;;;5037268;28;20037;-58
2023/07/06 18:04:26;;;;;;;281.63;251.00;;;;;;;;;;5038250;28;20074;-57
2023/07/06 18:06:52;;;;;;;303.30;242.95;;;;;;;;;;5039195;28;20286;-58
2023/07/06 18:09:17;;;;;;;281.50;248.43;;;;;;;;;;5036109;28;20032;-55
2023/07/06 18:11:42;;;;;;;290.37;260.97;;;;;;;;;;5037544;28;20032;-56
2023/07/06 18:14:07;;;;;;;349.60;267.27;;;;;;;;;;5036986;28;20588;-57
2023/07/06 18:16:32;;;;;;;265.50;236.60;;;;;;;;;;5036425;28;20097;-56
2023/07/06 18:18:58;;;;;;;283.43;253.67;;;;;;;;;;5036578;28;20060;-53
2023/07/06 18:21:25;;;;;;;272.70;237.40;;;;;;;;;;5038830;28;20104;-55
2023/07/06 18:23:51;;;;;;;283.40;247.68;;;;;;;;;;5038221;28;20489;-60
2023/07/06 18:26:16;;;;;;;301.38;223.48;;;;;;;;;;5034779;28;20040;-58
2023/07/06 18:28:41;;;;;;;286.83;228.53;;;;;;;;;;5038524;28;20020;-58
2023/07/06 18:31:07;;;;;;;303.13;226.60;;;;;;;;;;5035585;28;20745;-59
2023/07/06 18:33:32;;;;;;;246.80;217.07;;;;;;;;;;5037595;28;20138;-58
2023/07/06 18:35:57;;;;;;;274.20;244.17;;;;;;;;;;5036510;28;20268;-58
2023/07/06 18:38:22;;;;;;;245.73;215.67;;;;;;;;;;5037804;28;20021;-55
2023/07/06 18:40:59;;;;;;;338.05;299.08;;;;;;;;;;5032128;28;20275;-57
2023/07/06 18:43:25;;;;;;;240.73;212.10;;;;;;;;;;5025377;28;20031;-56
2023/07/06 18:45:54;;;;;;;215.57;192.82;;;;;;;;;;5024449;28;20068;-58
2023/07/06 18:48:20;;;;;;;223.38;200.35;;;;;;;;;;5024796;28;20021;-58
2023/07/06 18:50:48;;;;;;;254.77;226.98;;;;;;;;;;5025642;28;20114;-56
2023/07/06 18:53:13;;;;;;;268.98;203.88;;;;;;;;;;5023012;28;20025;-56
2023/07/06 18:55:39;;;;;;;233.45;195.63;;;;;;;;;;5024003;28;20032;-56
2023/07/06 18:58:04;;;;;;;309.85;245.65;;;;;;;;;;5023727;28;20115;-58
2023/07/06 19:00:30;;;;;;;286.05;259.88;;;;;;;;;;5027178;28;20061;-55
2023/07/06 19:02:55;;;;;;;329.33;296.67;;;;;;;;;;5025515;28;20591;-58
2023/07/06 19:05:21;;;;;;;184.97;159.90;;;;;;;;;;5022917;28;20033;-57
2023/07/06 19:07:46;;;;;;;250.33;223.27;;;;;;;;;;5024729;28;20260;-56
2023/07/06 19:10:11;;;;;;;292.10;240.73;;;;;;;;;;5023239;28;20288;-57
2023/07/06 19:12:36;;;;;;;230.77;206.38;;;;;;;;;;5025197;28;20963;-56
2023/07/06 19:15:02;;;;;;;257.17;232.67;;;;;;;;;;5022918;28;20031;-57
2023/07/06 19:17:29;;;;;;;274.77;244.63;;;;;;;;;;5024397;28;20836;-58
2023/07/06 19:19:54;;;;;;;255.32;227.50;;;;;;;;;;5024864;28;20031;-58
2023/07/06 19:22:19;;;;;;;404.03;362.07;;;;;;;;;;5023503;28;20033;-60
2023/07/06 19:24:44;;;;;;;313.57;280.40;;;;;;;;;;5025194;28;20307;-59
2023/07/06 19:27:11;;;;;;;304.52;255.73;;;;;;;;;;5024635;28;20306;-57
2023/07/06 19:29:36;;;;;;;455.70;411.83;;;;;;;;;;5026104;28;20025;-57
2023/07/06 19:32:01;;;;;;;569.78;518.35;;;;;;;;;;5023941;28;20160;-56
2023/07/06 19:34:27;;;;;;;474.67;429.27;;;;;;;;;;5022110;28;20032;-57
2023/07/06 19:36:53;;;;;;;407.05;365.55;;;;;;;;;;5023359;28;20121;-56
2023/07/06 19:39:18;;;;;;;461.17;412.10;;;;;;;;;;5023032;28;20090;-53
2023/07/06 19:41:44;;;;;;;188.60;154.20;;;;;;;;;;5024670;28;20056;-55
2023/07/06 19:44:09;;;;;;;703.90;638.43;;;;;;;;;;5022253;28;20027;-56
2023/07/06 19:46:34;;;;;;;525.97;470.70;;;;;;;;;;5024973;28;20048;-56
2023/07/06 19:48:59;;;;;;;613.87;556.60;;;;;;;;;;5021667;28;20032;-56
2023/07/06 19:51:25;;;;;;;368.63;329.63;;;;;;;;;;5023923;28;20302;-57
2023/07/06 19:53:51;;;;;;;262.80;224.73;;;;;;;;;;5023757;28;20767;-58
2023/07/06 19:56:20;;;;;;;180.32;74.82;;;;;;;;;;5021834;28;20039;-56
2023/07/06 19:58:45;;;;;;;468.90;423.38;;;;;;;;;;5023111;28;20784;-56
2023/07/06 20:01:12;;;;;;;367.02;308.42;;;;;;;;;;5020738;28;20040;-57
2023/07/06 20:03:37;;;;;;;161.07;124.53;;;;;;;;;;5023167;28;20034;-57
2023/07/06 20:06:03;;;;;;;59.40;11.65;;;;;;;;;;5021469;28;20446;-56
2023/07/06 20:08:28;;;;;;;165.00;92.30;;;;;;;;;;5020998;28;20028;-59
2023/07/06 20:10:58;;;;;;;122.00;58.95;;;;;;;;;;5023926;28;20033;-57
2023/07/06 20:13:24;;;;;;;161.52;21.48;;;;;;;;;;5021350;28;20018;-57
2023/07/06 20:15:49;;;;;;;142.85;84.68;;;;;;;;;;5023051;28;20617;-56
2023/07/06 20:18:15;;;;;;;119.77;17.07;;;;;;;;;;5021409;28;20017;-58
2023/07/06 20:20:40;;;;;;;91.15;10.15;;;;;;;;;;5023692;28;20299;-56
2023/07/06 20:23:06;;;;;;;83.90;23.48;;;;;;;;;;5022306;28;20017;-57
2023/07/06 20:25:31;;;;;;;76.17;7.50;;;;;;;;;;5023887;28;20093;-56
2023/07/06 20:27:56;;;;;;;87.03;12.23;;;;;;;;;;5022373;28;20321;-56
2023/07/06 20:30:21;;;;;;;141.25;19.67;;;;;;;;;;5022114;28;20025;-57
2023/07/06 20:32:47;;;;;;;92.90;8.80;;;;;;;;;;5023794;28;20028;-57
2023/07/06 20:35:12;;;;;;;130.27;11.47;;;;;;;;;;5021713;28;20268;-55
2023/07/06 20:37:37;;;;;;;96.95;8.23;;;;;;;;;;5022877;28;20021;-57
2023/07/06 20:40:03;;;;;;;85.60;8.17;;;;;;;;;;5024648;28;20029;-58
2023/07/06 20:42:28;;;;;;;68.93;6.65;;;;;;;;;;5023684;28;20371;-55
2023/07/06 20:44:55;;;;;;;77.68;7.47;;;;;;;;;;5022578;28;20279;-55
2023/07/06 20:47:20;;;;;;;135.88;17.40;;;;;;;;;;5020532;28;20045;-55
2023/07/06 20:49:47;;;;;;;72.57;6.93;;;;;;;;;;5020950;28;20173;-57
2023/07/06 20:52:13;;;;;;;120.38;10.23;;;;;;;;;;5021321;28;20036;-57
2023/07/06 20:54:38;;;;;;;81.28;7.90;;;;;;;;;;5022356;28;20141;-58
2023/07/06 20:57:03;;;;;;;88.47;7.80;;;;;;;;;;5023120;28;20510;-57
2023/07/06 20:59:29;;;;;;;90.40;7.88;;;;;;;;;;5023027;28;20280;-58
2023/07/06 21:01:56;;;;;;;90.73;8.20;;;;;;;;;;5022811;28;20037;-57
2023/07/06 21:04:21;;;;;;;135.95;11.30;;;;;;;;;;5020701;28;20272;-56
2023/07/06 21:06:46;;;;;;;92.60;8.30;;;;;;;;;;5020621;28;20039;-58
2023/07/06 21:09:12;;;;;;;112.68;9.93;;;;;;;;;;5030706;28;20057;-58
2023/07/06 21:11:37;;;;;;;87.97;8.02;;;;;;;;;;5024176;28;20032;-57
2023/07/06 21:14:03;;;;;;;62.08;6.43;;;;;;;;;;5023013;28;20021;-57
